Time;durP1;ratioP1;P1;durP2;ratioP2;P2;SDS_P1;SDS_P2;PMS_P1;PMS_P2;Temp;Humidity;BMP_temperature;BMP_pressure;BME280_temperature;BME280_humidity;BME280_pressure;Samples;Min_cycle;Max_cycle;Signal;HPM_P1;HPM_P2
2022/12/15 00:40:57;;;;;;;;;61.50;49.00;;;;;1.57;100.00;100104.91;5062227;28;45486;-81
2022/12/15 00:43:23;;;;;;;;;64.50;48.50;;;;;1.60;100.00;100120.78;5046103;28;45443;-82
2022/12/15 00:48:33;;;;;;;;;63.75;50.25;;;;;1.25;100.00;100089.47;5073019;28;45792;-83
2022/12/15 00:50:58;;;;;;;;;62.50;46.00;;;;;1.25;100.00;100111.09;5053707;28;45705;-83
2022/12/15 01:21:04;;;;;;;;;58.50;46.25;;;;;0.68;100.00;100078.28;5086525;27;45202;-85
2022/12/15 01:23:30;;;;;;;;;63.75;51.00;;;;;0.93;100.00;100120.72;5061247;28;45490;-81
2022/12/15 01:25:56;;;;;;;;;64.00;47.50;;;;;0.92;100.00;100121.75;5080940;28;45929;-82
2022/12/15 01:28:22;;;;;;;;;62.25;49.25;;;;;0.88;100.00;100113.13;5068866;28;45617;-87
2022/12/15 01:30:48;;;;;;;;;64.00;50.00;;;;;0.87;100.00;100092.56;5065798;28;45546;-80
2022/12/15 01:33:15;;;;;;;;;58.50;48.25;;;;;0.99;100.00;100112.00;5070121;28;45856;-81
2022/12/15 01:35:41;;;;;;;;;65.00;50.25;;;;;1.09;100.00;100145.09;5071152;28;45742;-82
2022/12/15 01:38:08;;;;;;;;;60.25;48.75;;;;;1.09;100.00;100141.56;5071136;28;45418;-86
2022/12/15 01:40:48;;;;;;;;;68.00;48.25;;;;;0.96;100.00;100121.28;5058740;28;48116;-85
2022/12/15 01:43:28;;;;;;;;;63.25;47.75;;;;;1.15;100.00;100140.91;5067426;28;45524;-85
2022/12/15 01:45:53;;;;;;;;;62.75;44.75;;;;;1.18;100.00;100154.09;5074792;28;45715;-83
2022/12/15 01:48:41;;;;;;;;;61.75;48.50;;;;;1.15;100.00;100159.81;5068415;28;46081;-80
2022/12/15 01:51:14;;;;;;;;;69.50;50.25;;;;;1.05;100.00;100147.31;5070264;28;45770;-81
2022/12/15 01:53:50;;;;;;;;;63.50;49.00;;;;;0.98;100.00;100143.53;5069858;28;45862;-82
2022/12/15 01:56:17;;;;;;;;;54.50;44.25;;;;;0.95;100.00;100159.22;5057657;28;45771;-81
2022/12/15 01:58:46;;;;;;;;;65.00;49.00;;;;;0.90;100.00;100166.94;5051310;28;46615;-82
2022/12/15 02:05:02;;;;;;;;;67.00;49.25;;;;;0.65;100.00;100170.34;5046673;28;45309;-87
2022/12/15 02:07:28;;;;;;;;;60.50;46.50;;;;;0.59;100.00;100170.16;5074202;28;45513;-88
2022/12/15 02:09:59;;;;;;;;;61.00;45.50;;;;;0.44;100.00;100164.50;5077152;28;45366;-88
2022/12/15 02:12:53;;;;;;;;;66.00;51.75;;;;;0.38;100.00;100179.44;5055246;28;46251;-87
2022/12/15 02:15:18;;;;;;;;;55.25;43.25;;;;;0.32;100.00;100169.28;5073269;28;45453;-89
2022/12/15 02:17:56;;;;;;;;;60.50;45.25;;;;;0.27;100.00;100158.97;5044026;28;45527;-84
2022/12/15 02:20:32;;;;;;;;;66.00;52.50;;;;;-0.01;100.00;100120.50;5047625;28;45938;-81
2022/12/15 02:23:25;;;;;;;;;66.75;48.00;;;;;0.15;100.00;100142.19;5068093;28;45843;-86
2022/12/15 02:26:11;;;;;;;;;67.50;51.75;;;;;0.07;100.00;100147.50;5058625;28;45453;-82
2022/12/15 02:29:01;;;;;;;;;67.00;49.75;;;;;0.08;100.00;100154.59;5076318;28;45518;-82
2022/12/15 02:34:36;;;;;;;;;70.25;49.75;;;;;-0.29;100.00;100087.41;5071867;28;45754;-83
2022/12/15 02:37:27;;;;;;;;;63.00;49.00;;;;;-0.22;100.00;100105.47;5049153;28;45489;-83
2022/12/15 02:39:54;;;;;;;;;68.00;51.75;;;;;-0.07;100.00;100121.13;5071455;28;45409;-81
2022/12/15 02:42:21;;;;;;;;;64.00;51.75;;;;;-0.04;100.00;100132.41;5074712;28;45538;-81
2022/12/15 02:44:53;;;;;;;;;70.75;53.25;;;;;-0.09;100.00;100133.88;5048871;28;46776;-82
2022/12/15 02:47:47;;;;;;;;;66.25;50.50;;;;;0.05;100.00;100171.09;5045996;28;45513;-81
2022/12/15 02:50:37;;;;;;;;;64.00;52.25;;;;;0.04;100.00;100174.75;5029378;28;45439;-85
2022/12/15 02:53:26;;;;;;;;;70.75;53.00;;;;;0.03;100.00;100172.22;5054747;28;46759;-85
2022/12/15 02:56:30;;;;;;;;;63.75;51.75;;;;;-0.09;100.00;100133.88;5058580;28;47106;-82
2022/12/15 02:59:19;;;;;;;;;66.50;52.00;;;;;0.04;100.00;100150.50;5055725;28;45869;-82
2022/12/15 03:01:54;;;;;;;;;66.50;54.50;;;;;0.01;100.00;100158.06;5075909;28;45499;-83
2022/12/15 03:04:21;;;;;;;;;65.50;51.25;;;;;-0.33;100.00;100100.34;5070232;28;45930;-83
2022/12/15 03:06:54;;;;;;;;;70.75;53.00;;;;;-0.41;100.00;100090.31;5039172;28;47275;-80
2022/12/15 03:09:20;;;;;;;;;68.00;51.00;;;;;-0.06;100.00;100134.44;5039765;28;45451;-85
2022/12/15 03:11:46;;;;;;;;;71.50;51.25;;;;;-0.07;100.00;100121.13;5043844;28;45530;-83
2022/12/15 03:14:11;;;;;;;;;63.00;50.00;;;;;-0.12;100.00;100100.03;5055264;28;45576;-82
2022/12/15 03:16:36;;;;;;;;;64.75;48.50;;;;;0.10;100.00;100130.16;5038247;28;46792;-81
2022/12/15 03:19:02;;;;;;;;;66.25;52.25;;;;;0.14;100.00;100139.66;5074330;28;45133;-87
2022/12/15 03:21:28;;;;;;;;;64.00;50.50;;;;;0.31;100.00;100171.13;5056257;28;45548;-87
2022/12/15 03:23:53;;;;;;;;;62.75;50.75;;;;;0.35;100.00;100168.97;5087151;28;45236;-84
2022/12/15 03:26:19;;;;;;;;;61.75;49.00;;;;;0.35;100.00;100169.81;5066244;28;45495;-86
2022/12/15 03:28:45;;;;;;;;;69.75;52.00;;;;;0.34;100.00;100178.06;5077577;28;45470;-83
2022/12/15 03:31:10;;;;;;;;;66.25;51.50;;;;;0.20;100.00;100162.44;5075019;28;45292;-81
2022/12/15 03:33:36;;;;;;;;;62.25;48.50;;;;;-0.14;100.00;100114.66;5066426;28;46431;-86
2022/12/15 03:36:02;;;;;;;;;67.00;48.75;;;;;0.07;100.00;100152.88;5078504;28;47051;-85
2022/12/15 03:38:28;;;;;;;;;64.00;49.00;;;;;0.07;100.00;100158.28;5093257;28;45351;-85
2022/12/15 03:40:53;;;;;;;;;65.50;48.00;;;;;-0.28;100.00;100102.56;5067346;28;45188;-85
2022/12/15 03:43:19;;;;;;;;;65.00;53.75;;;;;-0.10;100.00;100151.06;5068044;28;45693;-81
2022/12/15 03:45:45;;;;;;;;;74.50;52.25;;;;;-0.56;100.00;100084.59;5081504;28;45394;-82
2022/12/15 03:48:10;;;;;;;;;69.50;50.75;;;;;-0.31;100.00;100130.66;5082403;28;45632;-84
2022/12/15 03:50:39;;;;;;;;;59.50;44.50;;;;;-0.26;100.00;100144.50;5058358;28;46070;-82
2022/12/15 03:53:12;;;;;;;;;70.00;55.00;;;;;-0.92;100.00;100057.66;5058581;28;47386;-86
2022/12/15 03:55:37;;;;;;;;;68.00;53.50;;;;;-0.58;100.00;100124.31;5070043;28;47079;-85
2022/12/15 03:58:04;;;;;;;;;54.00;46.50;;;;;-0.47;100.00;100152.03;5077134;28;45461;-83
2022/12/15 04:00:29;;;;;;;;;73.00;55.00;;;;;-0.68;100.00;100134.31;5071429;28;45530;-81
2022/12/15 04:02:55;;;;;;;;;65.25;51.00;;;;;-0.52;100.00;100165.97;5072113;28;45350;-82
2022/12/15 04:05:27;;;;;;;;;64.25;50.50;;;;;-0.73;100.00;100132.06;5048111;28;47052;-83
2022/12/15 04:07:54;;;;;;;;;68.50;51.50;;;;;-0.51;100.00;100167.66;5053839;28;45504;-84
2022/12/15 04:10:20;;;;;;;;;66.75;49.25;;;;;-0.47;100.00;100170.91;5045332;28;45426;-83
2022/12/15 04:12:45;;;;;;;;;65.75;50.25;;;;;-0.65;100.00;100127.78;5068575;28;45618;-83
2022/12/15 04:15:11;;;;;;;;;72.50;53.25;;;;;-0.52;100.00;100148.94;5053436;28;47134;-83
2022/12/15 04:17:37;;;;;;;;;77.00;53.75;;;;;-0.58;100.00;100131.56;5066769;28;45421;-82
2022/12/15 04:20:08;;;;;;;;;68.50;52.00;;;;;-0.30;100.00;100164.69;5071704;28;45380;-82
2022/12/15 04:22:37;;;;;;;;;62.50;50.00;;;;;-0.44;100.00;100133.72;5055369;28;46966;-82
2022/12/15 05:34:46;;;;;;;;;63.50;50.75;;;;;0.17;100.00;100156.34;5067769;28;45861;-82
2022/12/15 05:37:18;;;;;;;;;66.25;51.50;;;;;-0.06;100.00;100122.78;5076921;28;45438;-81
2022/12/15 05:39:47;;;;;;;;;77.75;57.25;;;;;-0.06;100.00;100126.34;5080304;28;47216;-85
2022/12/15 05:42:12;;;;;;;;;66.25;50.00;;;;;-0.42;100.00;100067.09;5070906;28;45892;-82
2022/12/15 05:44:42;;;;;;;;;70.25;52.75;;;;;0.18;100.00;100159.91;5071869;28;45596;-83
2022/12/15 05:47:08;;;;;;;;;63.00;53.00;;;;;-0.20;100.00;100090.00;5051858;28;45470;-82
2022/12/15 05:49:39;;;;;;;;;62.25;47.75;;;;;-0.12;100.00;100097.31;5046905;28;45827;-82
2022/12/15 05:52:15;;;;;;;;;67.00;52.00;;;;;-0.01;100.00;100120.50;5050244;28;47363;-82
2022/12/15 05:54:56;;;;;;;;;65.75;52.75;;;;;0.09;100.00;100136.56;5057033;28;45607;-82
2022/12/15 05:57:22;;;;;;;;;57.50;48.00;;;;;-0.13;100.00;100108.25;5057140;28;45689;-82
2022/12/15 05:59:51;;;;;;;;;66.00;45.25;;;;;0.19;100.00;100171.53;5071668;28;45746;-83
2022/12/15 06:02:19;;;;;;;;;62.75;50.50;;;;;-0.39;100.00;100084.75;5068153;28;45806;-80
2022/12/15 06:04:45;;;;;;;;;61.50;48.25;;;;;0.09;100.00;100172.47;5070739;28;45332;-85
2022/12/15 06:07:11;;;;;;;;;64.25;49.75;;;;;-0.29;100.00;100115.19;5061142;28;44828;-82
2022/12/15 06:09:36;;;;;;;;;69.00;51.75;;;;;-0.22;100.00;100129.72;5070371;28;45664;-82
2022/12/15 06:12:02;;;;;;;;;68.25;51.75;;;;;-0.08;100.00;100162.53;5065160;28;45815;-83
2022/12/15 06:14:35;;;;;;;;;65.25;49.00;;;;;-0.14;100.00;100152.38;5049467;28;45553;-80
2022/12/15 06:17:00;;;;;;;;;70.00;53.25;;;;;-0.22;100.00;100167.47;5085174;28;44912;-81
2022/12/15 06:19:26;;;;;;;;;71.75;51.75;;;;;-0.25;100.00;100172.31;5075407;28;45390;-82
2022/12/15 06:21:52;;;;;;;;;64.25;51.00;;;;;-0.47;100.00;100143.97;5077344;28;47269;-81
2022/12/15 06:24:18;;;;;;;;;67.75;50.50;;;;;-0.51;100.00;100135.31;5040279;28;45484;-83
2022/12/15 06:26:44;;;;;;;;;66.00;52.50;;;;;-0.30;100.00;100164.69;5066564;28;45472;-82
2022/12/15 06:29:12;;;;;;;;;68.50;53.50;;;;;-0.32;100.00;100172.06;5050185;28;45959;-82
2022/12/15 06:31:38;;;;;;;;;63.00;48.50;;;;;-0.28;100.00;100173.47;5046221;28;48133;-83
2022/12/15 06:34:06;;;;;;;;;78.25;61.75;;;;;-0.49;100.00;100143.28;5058516;28;45359;-83
2022/12/15 06:36:32;;;;;;;;;70.25;53.25;;;;;-0.22;100.00;100177.41;5052520;28;45586;-83
2022/12/15 06:39:05;;;;;;;;;70.00;50.50;;;;;-0.17;100.00;100195.81;5073588;28;45788;-80
2022/12/15 06:41:31;;;;;;;;;65.00;46.50;;;;;-0.20;100.00;100187.00;5059692;28;47425;-85
2022/12/15 06:43:58;;;;;;;;;67.25;50.00;;;;;-0.23;100.00;100191.88;5055082;28;45421;-84
2022/12/15 06:46:25;;;;;;;;;66.00;50.75;;;;;-0.26;100.00;100187.63;5056855;28;46163;-82
2022/12/15 06:48:50;;;;;;;;;72.00;53.50;;;;;-0.21;100.00;100206.88;5064559;28;47435;-85
2022/12/15 06:51:16;;;;;;;;;72.50;55.75;;;;;-0.25;100.00;100207.34;5087315;28;45370;-83
2022/12/15 06:53:52;;;;;;;;;63.75;51.25;;;;;-0.54;100.00;100163.44;5065828;28;45239;-84
2022/12/15 06:56:34;;;;;;;;;68.25;52.00;;;;;-0.30;100.00;100205.13;5059431;28;45350;-83
2022/12/15 06:59:02;;;;;;;;;66.75;49.50;;;;;-0.22;100.00;100210.56;5064541;28;45860;-83
2022/12/15 07:01:28;;;;;;;;;68.50;54.25;;;;;-0.28;100.00;100216.56;5066215;28;47094;-84
2022/12/15 07:03:54;;;;;;;;;72.00;54.00;;;;;-0.33;100.00;100209.94;5080754;28;45485;-85
2022/12/15 07:06:19;;;;;;;;;58.25;48.25;;;;;-0.38;100.00;100210.41;5072525;28;45989;-85
2022/12/15 07:08:51;;;;;;;;;71.75;54.00;;;;;-0.44;100.00;100211.00;5065424;28;46778;-83
2022/12/15 07:11:20;;;;;;;;;73.00;55.75;;;;;-0.48;100.00;100215.84;5060369;28;45503;-80
2022/12/15 07:13:53;;;;;;;;;65.50;51.75;;;;;-0.59;100.00;100181.03;5069022;28;45417;-80
2022/12/15 07:16:20;;;;;;;;;66.25;50.00;;;;;-0.44;100.00;100216.38;5051069;28;45654;-83
2022/12/15 07:18:45;;;;;;;;;61.50;46.75;;;;;-0.52;100.00;100195.59;5070724;28;45657;-81
2022/12/15 07:21:12;;;;;;;;;70.75;50.00;;;;;-0.48;100.00;100207.78;5063776;28;46686;-84
2022/12/15 07:23:38;;;;;;;;;66.25;52.50;;;;;-0.45;100.00;100212.00;5062022;28;45488;-83
2022/12/15 07:26:06;;;;;;;;;72.25;54.25;;;;;-0.45;100.00;100214.69;5053258;28;45342;-82
2022/12/15 07:28:32;;;;;;;;;68.75;54.25;;;;;-0.48;100.00;100225.75;5061708;28;45935;-82
2022/12/15 07:31:02;;;;;;;;;73.00;55.50;;;;;-0.34;100.00;100244.13;5068468;28;45588;-84
2022/12/15 07:33:29;;;;;;;;;75.00;53.50;;;;;-0.54;100.00;100203.81;5047934;28;45456;-83
2022/12/15 07:35:54;;;;;;;;;72.50;53.25;;;;;-0.27;100.00;100239.84;5068544;28;45345;-82
2022/12/15 07:38:20;;;;;;;;;64.25;50.50;;;;;-0.22;100.00;100221.34;5046546;28;45835;-82
2022/12/15 07:40:45;;;;;;;;;72.50;55.00;;;;;-0.26;100.00;100208.34;5042336;28;46887;-82
2022/12/15 07:43:10;;;;;;;;;71.50;51.00;;;;;-0.38;100.00;100172.69;5067685;28;45728;-86
2022/12/15 07:45:36;;;;;;;;;68.50;53.75;;;;;-0.13;100.00;100203.44;5060811;28;45752;-84
2022/12/15 07:48:02;;;;;;;;;74.00;53.00;;;;;-0.05;100.00;100233.13;5052109;28;46003;-85
2022/12/15 07:50:28;;;;;;;;;71.50;53.50;;;;;-0.09;100.00;100210.22;5046732;28;46177;-84
2022/12/15 07:52:56;;;;;;;;;65.00;49.00;;;;;-0.44;100.00;100132.88;5056557;28;45472;-84
2022/12/15 07:55:21;;;;;;;;;67.75;50.75;;;;;0.33;100.00;100241.94;5052170;28;45621;-84
2022/12/15 07:57:47;;;;;;;;;70.00;54.25;;;;;0.21;100.00;100208.13;5064850;28;45751;-83
2022/12/15 08:00:14;;;;;;;;;71.50;52.75;;;;;0.58;100.00;100257.50;5045226;28;47157;-81
2022/12/15 08:02:41;;;;;;;;;69.25;53.75;;;;;0.62;100.00;100245.38;5061702;28;45988;-81
2022/12/15 08:05:07;;;;;;;;;64.25;51.25;;;;;0.64;100.00;100216.38;5067605;28;45769;-83
2022/12/15 08:07:33;;;;;;;;;71.50;54.25;;;;;0.85;100.00;100227.69;5050722;28;45667;-86
2022/12/15 08:09:58;;;;;;;;;67.50;52.50;;;;;1.01;100.00;100243.13;5078808;28;46415;-84
2022/12/15 08:12:23;;;;;;;;;63.00;48.00;;;;;1.08;100.00;100256.84;5054101;28;45544;-82
2022/12/15 08:14:49;;;;;;;;;62.75;49.75;;;;;1.05;100.00;100235.56;5063217;28;45401;-81
2022/12/15 08:17:14;;;;;;;;;67.25;51.50;;;;;1.19;100.00;100253.03;5053801;28;45922;-83
2022/12/15 08:19:40;;;;;;;;;53.50;44.00;;;;;1.32;100.00;100274.22;5074110;28;45861;-80
2022/12/15 08:22:05;;;;;;;;;75.75;53.00;;;;;1.11;100.00;100237.63;5064082;28;45407;-82
2022/12/15 08:24:31;;;;;;;;;65.75;48.50;;;;;1.32;100.00;100264.25;5066869;28;45366;-79
2022/12/15 08:26:57;;;;;;;;;66.00;51.50;;;;;1.31;100.00;100278.75;5076264;28;46532;-82
2022/12/15 08:29:22;;;;;;;;;65.75;47.50;;;;;0.99;100.00;100268.63;5066178;28;46218;-81
2022/12/15 08:31:48;;;;;;;;;64.75;49.00;;;;;1.05;100.00;100290.41;5052012;28;45712;-81
2022/12/15 08:34:13;;;;;;;;;67.25;53.50;;;;;1.12;100.00;100295.19;5046728;28;45327;-80
2022/12/15 08:36:39;;;;;;;;;71.75;51.25;;;;;1.11;100.00;100301.56;5072181;28;45292;-81
2022/12/15 08:39:04;;;;;;;;;62.50;50.00;;;;;0.85;100.00;100270.88;5072379;28;45877;-81
2022/12/15 08:41:31;;;;;;;;;57.00;44.50;;;;;0.97;100.00;100297.59;5066139;28;44837;-81
2022/12/15 08:43:59;;;;;;;;;78.00;56.75;;;;;0.85;100.00;100289.78;5063205;28;45435;-81
2022/12/15 08:46:26;;;;;;;;;73.25;55.50;;;;;0.72;100.00;100281.22;5046747;28;47050;-82
2022/12/15 08:48:53;;;;;;;;;68.25;52.25;;;;;0.72;100.00;100283.94;5047393;28;47320;-80
2022/12/15 08:51:20;;;;;;;;;66.25;51.25;;;;;0.81;100.00;100299.19;5068031;28;44855;-79
2022/12/15 08:53:46;;;;;;;;;66.00;49.50;;;;;0.57;100.00;100256.66;5069671;28;45584;-81
2022/12/15 08:56:15;;;;;;;;;65.50;51.00;;;;;0.67;100.00;100272.75;5049031;28;46039;-82
2022/12/15 08:58:41;;;;;;;;;69.50;52.75;;;;;0.58;100.00;100260.19;5050363;28;47434;-83
2022/12/15 09:01:12;;;;;;;;;70.75;56.00;;;;;0.77;100.00;100289.69;5067145;28;45569;-83
2022/12/15 09:03:38;;;;;;;;;66.25;50.50;;;;;0.69;100.00;100279.69;5073968;28;45362;-84
2022/12/15 09:06:05;;;;;;;;;66.75;52.25;;;;;0.70;100.00;100278.69;5069008;28;45567;-83
2022/12/15 09:08:32;;;;;;;;;71.75;54.00;;;;;0.73;100.00;100269.41;5073242;28;45501;-84
2022/12/15 09:10:57;;;;;;;;;70.25;54.50;;;;;0.97;100.00;100301.13;5049111;28;45770;-84
2022/12/15 09:13:26;;;;;;;;;76.50;55.00;;;;;1.05;100.00;100308.47;5056759;28;45873;-83
2022/12/15 09:16:16;;;;;;;;;70.00;50.75;;;;;1.14;100.00;100307.53;5067757;28;45471;-84
2022/12/15 09:18:44;;;;;;;;;72.50;55.25;;;;;1.25;100.00;100298.31;5048742;28;47284;-82
2022/12/15 09:21:11;;;;;;;;;74.50;55.50;;;;;1.36;100.00;100294.47;5038752;28;45463;-82
2022/12/15 09:23:38;;;;;;;;;66.75;53.00;;;;;1.43;100.00;100298.25;5057553;28;45773;-84
2022/12/15 09:26:14;;;;;;;;;68.00;54.00;;;;;1.45;100.00;100288.09;5063130;28;46974;-81
2022/12/15 09:28:44;;;;;;;;;66.50;52.75;;;;;1.73;100.00;100299.56;5059328;28;45770;-80
2022/12/15 09:31:12;;;;;;;;;62.75;45.75;;;;;1.55;100.00;100264.50;5060840;28;45407;-83
2022/12/15 09:33:39;;;;;;;;;69.25;53.75;;;;;1.85;100.00;100302.81;5064458;28;45419;-82
2022/12/15 09:36:06;;;;;;;;;68.00;51.50;;;;;1.72;100.00;100267.28;5054626;28;46775;-84
2022/12/15 09:38:39;;;;;;;;;72.50;54.00;;;;;2.05;100.00;100307.97;5069315;28;45450;-83
2022/12/15 09:41:15;;;;;;;;;71.00;52.75;;;;;2.12;100.00;100303.59;5054612;28;45754;-83
2022/12/15 09:43:54;;;;;;;;;69.50;52.50;;;;;2.31;100.00;100315.16;5047904;28;45581;-82
2022/12/15 09:46:44;;;;;;;;;70.50;54.50;;;;;2.19;100.00;100276.75;5064837;28;46074;-83
2022/12/15 09:49:24;;;;;;;;;72.50;54.25;;;;;2.69;100.00;100296.59;5058209;28;48181;-83
2022/12/15 09:52:11;;;;;;;;;67.75;51.75;;;;;2.86;100.00;100290.16;5067875;28;45191;-84
2022/12/15 09:54:37;;;;;;;;;65.00;52.50;;;;;2.92;100.00;100283.19;5085395;28;45470;-83
2022/12/15 09:57:19;;;;;;;;;63.50;49.25;;;;;3.08;100.00;100315.69;5082096;28;45520;-82
2022/12/15 09:59:59;;;;;;;;;69.25;52.50;;;;;2.88;100.00;100271.88;5081758;28;45819;-81
2022/12/15 10:02:43;;;;;;;;;63.75;50.25;;;;;3.20;100.00;100304.50;5077180;28;45501;-81
2022/12/15 10:05:38;;;;;;;;;55.25;44.25;;;;;3.19;100.00;100292.84;5080508;28;45799;-82
2022/12/15 10:08:09;;;;;;;;;72.25;49.25;;;;;3.24;100.00;100292.31;5074603;28;45798;-86
2022/12/15 10:11:03;;;;;;;;;62.00;50.00;;;;;3.59;100.00;100323.56;5066880;28;47020;-87
2022/12/15 10:13:29;;;;;;;;;64.25;52.25;;;;;3.61;100.00;100321.53;5083687;28;45063;-84
2022/12/15 10:16:25;;;;;;;;;69.00;50.50;;;;;3.47;100.00;100301.41;5077070;28;44812;-84
2022/12/15 10:18:58;;;;;;;;;64.25;51.00;;;;;3.56;100.00;100318.47;5080356;28;45916;-86
2022/12/15 10:21:27;;;;;;;;;58.75;45.75;;;;;3.44;100.00;100306.31;5063857;28;46330;-85
2022/12/15 10:24:20;;;;;;;;;63.00;49.00;;;;;3.07;100.00;100262.53;5073399;28;45451;-85
2022/12/15 10:27:22;;;;;;;;;63.75;49.75;;;;;3.28;100.00;100321.59;5058159;28;45625;-84
2022/12/15 10:30:03;;;;;;;;;67.75;50.75;;;;;3.28;100.00;100320.75;5093380;27;44966;-85
2022/12/15 10:32:44;;;;;;;;;69.25;52.25;;;;;3.29;100.00;100298.06;5096048;28;45262;-85
2022/12/15 10:35:17;;;;;;;;;64.75;47.50;;;;;3.17;100.00;100243.38;5100698;27;44817;-85
2022/12/15 10:37:49;;;;;;;;;63.00;50.50;;;;;3.09;100.00;100194.63;5102260;27;44827;-87
2022/12/15 10:40:18;;;;;;;;;67.25;48.75;;;;;3.40;100.00;100250.75;5081697;27;44812;-86
2022/12/15 10:42:48;;;;;;;;;67.00;51.00;;;;;3.25;100.00;100224.41;5071127;27;48328;-84
2022/12/15 10:45:37;;;;;;;;;62.50;48.50;;;;;3.58;100.00;100283.06;5075284;27;45226;-85
2022/12/15 10:48:24;;;;;;;;;63.25;48.25;;;;;3.16;100.00;100220.03;5096515;28;45160;-85
2022/12/15 10:50:49;;;;;;;;;67.00;53.00;;;;;3.27;100.00;100243.19;5097401;27;44844;-85
2022/12/15 10:53:40;;;;;;;;;68.00;52.75;;;;;3.39;100.00;100246.38;5096866;27;46914;-86
2022/12/15 10:56:13;;;;;;;;;66.25;50.50;;;;;3.68;100.00;100271.00;5067355;28;45516;-86
2022/12/15 10:58:56;;;;;;;;;66.25;51.50;;;;;3.26;100.00;100180.00;5079087;27;45127;-85
2022/12/15 11:01:28;;;;;;;;;68.25;51.75;;;;;3.43;100.00;100215.16;5071039;27;46031;-85
2022/12/15 11:03:55;;;;;;;;;61.00;48.50;;;;;3.73;100.00;100267.75;5070928;27;46787;-86
2022/12/15 11:06:35;;;;;;;;;63.00;49.00;;;;;3.69;100.00;100259.13;5067537;27;45129;-85
2022/12/15 11:09:19;;;;;;;;;61.00;43.75;;;;;3.69;100.00;100255.56;5079045;28;45382;-83
2022/12/15 11:14:51;;;;;;;;;61.00;46.25;;;;;3.67;100.00;100234.06;5080182;27;45445;-82
2022/12/15 11:17:19;;;;;;;;;70.00;51.50;;;;;3.58;100.00;100204.44;5062636;28;44896;-83
2022/12/15 11:20:01;;;;;;;;;62.75;49.75;;;;;3.68;100.00;100235.75;5055073;28;45443;-78
2022/12/15 11:22:52;;;;;;;;;61.00;47.75;;;;;3.74;100.00;100241.47;5061859;28;45760;-78
2022/12/15 11:25:36;;;;;;;;;58.75;47.25;;;;;3.67;100.00;100242.19;5051869;28;47122;-77
2022/12/15 11:28:11;;;;;;;;;60.75;47.75;;;;;3.62;100.00;100247.31;5071541;28;45466;-76
2022/12/15 11:31:05;;;;;;;;;51.75;39.50;;;;;3.45;100.00;100226.69;5078563;28;45789;-77
2022/12/15 11:33:31;;;;;;;;;56.75;44.75;;;;;3.43;100.00;100216.03;5071778;28;45015;-78
2022/12/15 11:36:18;;;;;;;;;57.75;45.75;;;;;3.39;100.00;100208.44;5067984;28;46473;-78
2022/12/15 11:38:56;;;;;;;;;67.75;49.25;;;;;3.30;100.00;100200.31;5068458;28;45654;-78
2022/12/15 11:41:42;;;;;;;;;64.75;48.50;;;;;3.11;100.00;100169.03;5068058;28;45286;-78
2022/12/15 11:44:29;;;;;;;;;60.25;45.75;;;;;3.23;100.00;100164.09;5053283;28;46209;-78
2022/12/15 11:46:59;;;;;;;;;67.75;49.75;;;;;3.21;100.00;100168.00;5049869;28;46982;-73
2022/12/15 11:49:40;;;;;;;;;72.25;49.50;;;;;3.12;100.00;100169.91;5059880;28;45803;-77
2022/12/15 11:52:16;;;;;;;;;55.25;47.00;;;;;2.88;100.00;100173.53;5065792;28;44856;-77
2022/12/15 11:54:54;;;;;;;;;64.00;49.50;;;;;2.94;100.00;100167.41;5065894;28;45893;-77
2022/12/15 11:57:48;;;;;;;;;67.00;50.00;;;;;2.95;100.00;100150.13;5047700;28;47896;-76
2022/12/15 12:00:18;;;;;;;;;62.75;46.00;;;;;2.97;100.00;100142.69;5059217;28;45492;-78
2022/12/15 12:03:01;;;;;;;;;67.00;50.00;;;;;3.20;100.00;100150.06;5066917;28;45982;-77
2022/12/15 12:05:37;;;;;;;;;63.00;48.00;;;;;3.28;100.00;100148.16;5063380;28;45654;-77
2022/12/15 12:08:36;;;;;;;;;67.00;52.25;;;;;3.26;100.00;100146.66;5074755;28;45145;-79
2022/12/15 12:11:15;;;;;;;;;67.75;50.75;;;;;3.20;100.00;100134.63;5079106;28;45517;-75
2022/12/15 12:13:49;;;;;;;;;59.50;45.00;;;;;3.03;100.00;100117.63;5068034;28;46505;-76
2022/12/15 12:16:31;;;;;;;;;59.75;45.75;;;;;3.18;100.00;100150.22;5043041;28;46260;-75
2022/12/15 12:19:14;;;;;;;;;63.75;48.50;;;;;3.15;100.00;100140.59;5037883;28;47199;-76
2022/12/15 12:21:44;;;;;;;;;60.50;47.25;;;;;3.06;100.00;100129.97;5049559;28;45917;-77
2022/12/15 12:24:22;;;;;;;;;61.75;45.00;;;;;3.03;100.00;100127.63;5070808;28;45593;-75
2022/12/15 12:26:51;;;;;;;;;56.00;45.75;;;;;2.95;100.00;100121.19;5049276;28;46172;-77
2022/12/15 12:29:59;;;;;;;;;60.25;47.75;;;;;2.87;100.00;100121.22;5053513;28;48272;-81
2022/12/15 12:32:54;;;;;;;;;63.25;47.00;;;;;2.78;100.00;100122.25;5011975;28;45652;-81
2022/12/15 12:35:32;;;;;;;;;50.50;42.25;;;;;2.72;100.00;100125.66;5073003;28;45202;-80
2022/12/15 12:38:03;;;;;;;;;61.50;48.50;;;;;2.64;100.00;100116.53;5073086;28;45416;-81
2022/12/15 12:40:40;;;;;;;;;55.25;45.50;;;;;2.61;100.00;100116.06;5062380;28;47092;-82
2022/12/15 12:43:14;;;;;;;;;51.50;39.50;;;;;2.57;100.00;100104.72;5081663;28;45098;-81
2022/12/15 12:45:53;;;;;;;;;57.25;40.50;;;;;2.62;100.00;100105.06;5073293;28;44841;-81
2022/12/15 12:48:36;;;;;;;;;60.50;45.00;;;;;2.68;100.00;100113.50;5075744;28;44749;-81
2022/12/15 12:51:28;;;;;;;;;60.50;46.50;;;;;2.62;100.00;100112.31;5067207;28;45716;-80
2022/12/15 12:53:56;;;;;;;;;45.00;37.25;;;;;2.62;100.00;100102.34;5059683;28;45631;-79
2022/12/15 12:56:42;;;;;;;;;60.50;43.75;;;;;2.64;100.00;100096.75;5072528;28;44797;-82
2022/12/15 12:59:28;;;;;;;;;67.25;48.75;;;;;2.70;100.00;100101.47;5057949;28;46434;-86
2022/12/15 13:02:09;;;;;;;;;61.50;47.50;;;;;2.73;100.00;100095.72;5029462;28;46206;-84
2022/12/15 13:04:39;;;;;;;;;53.50;43.00;;;;;2.78;100.00;100089.78;5076961;28;45414;-83
2022/12/15 13:07:39;;;;;;;;;68.00;47.00;;;;;2.58;100.00;100071.22;5071203;28;45734;-82
2022/12/15 13:10:07;;;;;;;;;64.25;48.50;;;;;2.81;100.00;100095.69;5049316;28;46150;-84
2022/12/15 13:13:04;;;;;;;;;58.75;41.25;;;;;2.85;100.00;100098.06;5066735;28;45679;-81
2022/12/15 13:15:35;;;;;;;;;53.75;45.25;;;;;2.69;100.00;100052.91;5064841;28;45928;-84
2022/12/15 13:18:20;;;;;;;;;47.75;39.25;;;;;2.97;100.00;100100.19;5059853;28;45825;-83
2022/12/15 13:20:59;;;;;;;;;55.50;42.00;;;;;3.07;100.00;100089.16;5060540;28;47483;-81
2022/12/15 13:23:24;;;;;;;;;58.50;46.50;;;;;2.89;100.00;100058.75;5074679;28;45716;-83
2022/12/15 13:25:59;;;;;;;;;53.50;42.25;;;;;3.17;100.00;100105.19;5051206;28;45380;-79
2022/12/15 13:28:46;;;;;;;;;55.75;42.50;;;;;3.10;100.00;100079.81;5058860;28;45470;-80
2022/12/15 13:31:19;;;;;;;;;57.00;46.75;;;;;3.29;100.00;100111.91;5086043;28;45548;-81
2022/12/15 13:34:16;;;;;;;;;55.25;42.50;;;;;3.26;100.00;100101.41;5080134;28;45916;-83
2022/12/15 13:37:16;;;;;;;;;54.50;43.25;;;;;3.18;100.00;100090.63;5074065;28;45644;-82
2022/12/15 13:39:54;;;;;;;;;49.00;39.50;;;;;3.18;100.00;100069.78;5059505;28;45608;-82
2022/12/15 13:42:47;;;;;;;;;;;;;;;;;;;;;
2022/12/15 13:45:37;;;;;;;;;44.25;35.50;;;;;3.15;100.00;100043.03;5071339;28;75883;-82
2022/12/15 13:48:23;;;;;;;;;48.50;41.25;;;;;3.49;100.00;100076.22;5055867;28;46082;-83
2022/12/15 13:51:23;;;;;;;;;50.00;40.00;;;;;3.55;100.00;100078.22;5061685;28;44868;-82
2022/12/15 13:54:08;;;;;;;;;49.25;38.50;;;;;3.54;100.00;100076.53;5084948;28;45420;-82
2022/12/15 13:56:46;;;;;;;;;41.50;34.50;;;;;3.52;100.00;100076.72;5081494;27;45295;-81
2022/12/15 13:59:21;;;;;;;;;49.00;36.00;;;;;3.58;100.00;100072.44;5074621;28;45353;-77
2022/12/15 14:01:53;;;;;;;;;36.00;31.00;;;;;3.63;100.00;100053.75;5054993;28;45426;-76
2022/12/15 14:04:20;;;;;;;;;45.25;35.00;;;;;3.62;100.00;100057.50;5050665;28;45572;-78
2022/12/15 14:07:00;;;;;;;;;50.75;37.00;;;;;3.48;100.00;100025.75;5047129;28;47320;-77